Time;durP1;ratioP1;P1;durP2;ratioP2;P2;SDS_P1;SDS_P2;PMS_P1;PMS_P2;Temp;Humidity;BMP_temperature;BMP_pressure;BME280_temperature;BME280_humidity;BME280_pressure;Samples;Min_cycle;Max_cycle;Signal;HPM_P1;HPM_P2
2023/06/02 00:00:01;;;;;;;0.35;0.17;;;;;;;13.84;58.16;99187.22;5043894;28;20049;-72
2023/06/02 00:02:29;;;;;;;0.10;0.10;;;;;;;13.84;58.20;99189.97;5044033;28;20107;-72
2023/06/02 00:04:59;;;;;;;0.10;0.10;;;;;;;13.81;58.23;99189.75;5042109;28;20041;-73
2023/06/02 00:07:25;;;;;;;0.10;0.10;;;;;;;13.77;57.70;99178.56;5043374;28;20067;-74
2023/06/02 00:09:55;;;;;;;0.10;0.10;;;;;;;13.76;57.95;99182.44;5027217;28;20372;-73
2023/06/02 00:12:22;;;;;;;0.20;0.20;;;;;;;13.72;57.93;99187.75;5040314;28;20041;-73
2023/06/02 00:14:48;;;;;;;0.20;0.20;;;;;;;13.71;58.08;99179.81;5043705;28;20053;-72
2023/06/02 00:17:18;;;;;;;0.20;0.20;;;;;;;13.69;57.86;99182.88;5045820;28;20447;-72
2023/06/02 00:19:45;;;;;;;0.20;0.20;;;;;;;13.69;57.96;99177.38;5040545;28;20037;-72
2023/06/02 00:22:14;;;;;;;0.10;0.10;;;;;;;13.65;57.37;99178.31;5045019;28;20128;-73
2023/06/02 00:24:40;;;;;;;0.10;0.10;;;;;;;13.59;57.18;99180.38;5024443;28;20524;-73
2023/06/02 00:27:08;;;;;;;0.10;0.10;;;;;;;13.57;56.15;99177.13;5040954;28;20059;-73
2023/06/02 00:29:35;;;;;;;0.13;0.13;;;;;;;13.52;56.02;99174.50;5041814;28;20049;-72
2023/06/02 00:32:01;;;;;;;0.10;0.10;;;;;;;13.51;55.35;99168.22;5028198;28;20419;-71
2023/06/02 00:34:27;;;;;;;0.10;0.10;;;;;;;13.50;55.20;99168.50;5042202;28;20067;-72
2023/06/02 00:36:54;;;;;;;0.10;0.10;;;;;;;13.51;55.04;99168.22;5022855;28;20148;-73
2023/06/02 00:39:20;;;;;;;0.17;0.10;;;;;;;13.50;55.04;99184.97;5023636;28;20077;-73
2023/06/02 00:41:46;;;;;;;0.20;0.20;;;;;;;13.47;54.64;99178.16;5034020;28;20080;-72
2023/06/02 00:44:15;;;;;;;0.10;0.10;;;;;;;13.44;54.88;99176.03;5036062;28;20484;-73
2023/06/02 00:46:41;;;;;;;0.47;0.20;;;;;;;13.42;54.95;99181.00;5024474;28;20064;-73
2023/06/02 00:49:07;;;;;;;0.10;0.10;;;;;;;13.38;55.18;99180.00;5021237;28;20087;-73
2023/06/02 00:51:33;;;;;;;0.20;0.20;;;;;;;13.34;55.45;99177.06;5038566;28;20076;-72
2023/06/02 00:53:59;;;;;;;0.10;0.10;;;;;;;13.31;55.71;99172.19;5022472;28;20041;-71
2023/06/02 00:56:26;;;;;;;0.10;0.10;;;;;;;13.28;55.99;99181.03;5022817;28;20136;-71
2023/06/02 00:58:53;;;;;;;0.20;0.20;;;;;;;13.22;56.25;99185.00;5020389;28;20053;-71
2023/06/02 01:01:21;;;;;;;0.10;0.10;;;;;;;13.17;56.43;99181.25;5038362;28;20053;-72
2023/06/02 01:03:50;;;;;;;0.10;0.10;;;;;;;13.19;56.57;99184.50;5043592;28;20520;-73
2023/06/02 01:06:23;;;;;;;0.30;0.20;;;;;;;13.22;56.02;99180.34;5042500;28;20423;-72
2023/06/02 01:08:50;;;;;;;0.15;0.10;;;;;;;13.22;56.12;99171.28;5034734;28;20099;-70
2023/06/02 01:11:18;;;;;;;0.10;0.10;;;;;;;13.18;56.35;99177.38;5033038;28;20085;-73
2023/06/02 01:13:45;;;;;;;0.10;0.10;;;;;;;13.15;56.25;99186.25;5040778;28;20064;-73
2023/06/02 01:16:12;;;;;;;0.10;0.10;;;;;;;13.13;56.25;99190.41;5033252;28;20049;-71
2023/06/02 01:18:45;;;;;;;0.10;0.10;;;;;;;13.10;56.65;99189.06;5057132;28;20056;-73
2023/06/02 01:21:12;;;;;;;0.32;0.10;;;;;;;13.07;56.50;99186.94;5038233;28;20072;-73
2023/06/02 01:23:47;;;;;;;;;;;;;;;13.13;56.45;99184.91;5035180;28;20060;-74
2023/06/02 01:26:13;;;;;;;0.10;0.10;;;;;;;13.14;56.19;99192.03;5024391;28;19925;-71
2023/06/02 01:28:40;;;;;;;0.10;0.10;;;;;;;12.99;56.26;99171.22;5042418;28;20060;-73
2023/06/02 01:31:11;;;;;;;0.10;0.10;;;;;;;13.17;55.83;99196.91;5039586;28;20308;-72
2023/06/02 01:33:43;;;;;;;0.15;0.15;;;;;;;13.18;55.86;99201.25;5039970;28;20134;-71
2023/06/02 01:36:09;;;;;;;0.10;0.10;;;;;;;13.21;55.37;99194.34;5035793;28;20052;-72
2023/06/02 01:38:38;;;;;;;0.10;0.10;;;;;;;13.26;55.19;99196.97;5038536;28;20049;-73
2023/06/02 01:41:07;;;;;;;0.10;0.10;;;;;;;13.27;54.86;99193.16;5037417;28;20075;-73
2023/06/02 01:43:35;;;;;;;0.10;0.10;;;;;;;13.31;54.98;99197.69;5022527;28;20055;-73
2023/06/02 01:46:04;;;;;;;0.10;0.10;;;;;;;13.31;54.91;99192.19;5037168;28;20059;-72
2023/06/02 01:48:30;;;;;;;0.10;0.10;;;;;;;13.31;55.48;99202.38;5043538;28;20110;-73
2023/06/02 01:50:56;;;;;;;0.15;0.15;;;;;;;13.33;54.85;99197.41;5036646;28;20516;-72
2023/06/02 01:53:26;;;;;;;0.10;0.10;;;;;;;13.38;54.53;99190.97;5036037;28;20091;-71
2023/06/02 01:55:52;;;;;;;0.10;0.10;;;;;;;13.43;54.29;99196.34;5041305;28;20052;-72
2023/06/02 01:58:20;;;;;;;0.10;0.10;;;;;;;13.50;54.16;99190.47;5038728;28;20049;-72
2023/06/02 02:00:46;;;;;;;0.20;0.20;;;;;;;13.56;54.17;99195.53;5032357;28;20040;-71
2023/06/02 02:03:13;;;;;;;0.10;0.10;;;;;;;13.61;54.35;99200.13;5043419;28;20041;-71
2023/06/02 02:05:39;;;;;;;0.17;0.17;;;;;;;13.62;53.95;99201.72;5042072;28;20428;-71
2023/06/02 02:08:05;;;;;;;0.10;0.10;;;;;;;13.63;54.77;99202.53;5028744;28;20041;-72
2023/06/02 02:10:31;;;;;;;0.20;0.20;;;;;;;13.64;55.36;99201.41;5039062;28;20045;-72
2023/06/02 02:12:57;;;;;;;0.10;0.10;;;;;;;13.69;55.65;99202.09;5035018;28;20049;-72
2023/06/02 02:15:27;;;;;;;0.20;0.20;;;;;;;13.77;55.57;99213.50;5038932;28;20056;-72
2023/06/02 02:17:56;;;;;;;0.10;0.10;;;;;;;13.87;55.54;99225.03;5024190;28;20496;-71
2023/06/02 02:20:23;;;;;;;0.10;0.10;;;;;;;14.02;54.62;99210.13;5003919;28;20512;-71
2023/06/02 02:22:50;;;;;;;0.10;0.10;;;;;;;14.20;54.11;99212.19;5040091;28;20139;-71
2023/06/02 02:25:16;;;;;;;0.10;0.10;;;;;;;14.34;53.84;99212.91;5035705;28;20448;-72
2023/06/02 02:27:42;;;;;;;0.10;0.10;;;;;;;14.45;53.23;99208.78;5041142;28;20405;-72
2023/06/02 02:30:10;;;;;;;0.20;0.20;;;;;;;14.53;52.94;99201.72;5040828;28;20326;-72
2023/06/02 02:32:39;;;;;;;0.10;0.10;;;;;;;14.68;52.50;99208.72;5041009;28;20052;-72
2023/06/02 02:35:06;;;;;;;0.10;0.10;;;;;;;14.79;52.20;99216.75;5039360;28;20049;-73
2023/06/02 02:37:33;;;;;;;;;;;;;;;14.89;51.72;99214.50;5022032;28;20045;-73
2023/06/02 02:40:00;;;;;;;0.10;0.10;;;;;;;14.95;51.36;99219.88;5021436;28;19978;-73
2023/06/02 02:42:26;;;;;;;0.10;0.10;;;;;;;14.97;50.83;99225.84;5013440;28;20550;-72
2023/06/02 02:44:52;;;;;;;0.20;0.20;;;;;;;14.90;50.56;99207.06;5023474;28;20470;-71
2023/06/02 02:47:18;;;;;;;0.10;0.10;;;;;;;15.03;50.97;99219.09;5039402;28;20057;-72
2023/06/02 02:49:46;;;;;;;0.20;0.20;;;;;;;15.11;50.64;99204.53;5040660;28;20554;-73
2023/06/02 02:52:12;;;;;;;0.10;0.10;;;;;;;15.14;51.04;99212.16;5039810;28;20523;-72
2023/06/02 02:54:39;;;;;;;0.13;0.13;;;;;;;15.11;51.30;99218.28;5039649;28;20049;-72
2023/06/02 02:57:07;;;;;;;0.10;0.10;;;;;;;15.11;50.98;99221.03;5006779;28;20144;-73
2023/06/02 02:59:35;;;;;;;0.10;0.10;;;;;;;15.08;50.70;99215.38;5040730;28;20136;-73
2023/06/02 03:02:03;;;;;;;0.15;0.15;;;;;;;15.08;50.39;99221.69;5039495;28;20123;-72
2023/06/02 03:04:32;;;;;;;0.20;0.20;;;;;;;15.09;50.41;99228.03;5040380;28;21543;-72
2023/06/02 03:07:01;;;;;;;0.20;0.20;;;;;;;15.12;50.54;99227.38;5040459;28;20057;-72
2023/06/02 03:09:28;;;;;;;0.20;0.20;;;;;;;15.19;50.67;99224.97;5017866;28;20571;-73
2023/06/02 03:11:57;;;;;;;0.13;0.13;;;;;;;15.23;50.07;99227.88;5043162;28;20045;-72
2023/06/02 03:14:27;;;;;;;0.10;0.10;;;;;;;15.26;49.77;99228.06;5027059;28;20068;-71
2023/06/02 03:16:56;;;;;;;0.20;0.20;;;;;;;15.27;49.41;99232.44;5025845;28;20061;-72
2023/06/02 03:19:24;;;;;;;0.10;0.10;;;;;;;15.30;49.24;99240.06;5042977;28;20060;-73
2023/06/02 03:21:51;;;;;;;0.20;0.20;;;;;;;15.29;49.36;99232.94;5007899;28;20049;-73
2023/06/02 03:24:20;;;;;;;0.10;0.10;;;;;;;15.37;49.59;99239.59;5055051;28;20119;-74
2023/06/02 03:26:51;;;;;;;0.20;0.20;;;;;;;15.47;49.65;99232.97;5034777;28;20073;-73
2023/06/02 03:29:19;;;;;;;0.20;0.20;;;;;;;15.52;49.38;99230.03;5027026;28;20060;-73
2023/06/02 03:31:47;;;;;;;0.20;0.20;;;;;;;15.57;49.36;99238.16;5043891;28;20644;-73
2023/06/02 03:34:17;;;;;;;0.43;0.25;;;;;;;15.65;49.31;99232.97;5043670;28;20052;-73
2023/06/02 03:36:43;;;;;;;0.20;0.20;;;;;;;15.73;48.50;99237.69;5043274;28;20405;-73
2023/06/02 03:39:12;;;;;;;0.20;0.20;;;;;;;15.73;48.40;99234.94;5035622;28;20080;-73
2023/06/02 03:41:42;;;;;;;0.20;0.20;;;;;;;15.71;48.80;99227.00;5027351;28;20049;-73
2023/06/02 03:44:09;;;;;;;0.20;0.20;;;;;;;15.72;48.95;99227.81;5043667;28;20423;-74
2023/06/02 03:46:36;;;;;;;0.20;0.20;;;;;;;15.68;48.90;99226.81;5025921;28;20049;-74
2023/06/02 03:49:04;;;;;;;0.20;0.20;;;;;;;15.60;49.09;99231.19;5026044;28;20511;-73
2023/06/02 03:51:30;;;;;;;0.20;0.20;;;;;;;15.55;49.55;99229.41;5044121;28;20134;-74
2023/06/02 03:53:58;;;;;;;0.20;0.20;;;;;;;15.54;49.85;99232.47;5037259;28;20048;-72
2023/06/02 03:56:25;;;;;;;0.20;0.20;;;;;;;15.45;49.76;99227.78;5025130;28;20049;-74
2023/06/02 03:58:54;;;;;;;0.30;0.30;;;;;;;15.51;49.84;99238.66;5032108;28;20090;-72
2023/06/02 04:01:21;;;;;;;0.20;0.20;;;;;;;15.48;49.79;99240.09;5043591;28;20107;-72
2023/06/02 04:03:48;;;;;;;;;;;;;;;15.45;49.57;99252.59;5044440;28;20051;-72
2023/06/02 04:06:15;;;;;;;;;;;;;;;15.41;50.49;99243.31;5026420;28;19964;-73
2023/06/02 04:08:41;;;;;;;0.17;0.17;;;;;;;15.33;52.05;99235.88;5043700;28;19925;-73
2023/06/02 04:11:08;;;;;;;0.20;0.20;;;;;;;15.24;52.54;99232.25;5043825;28;20041;-73
2023/06/02 04:13:35;;;;;;;0.20;0.20;;;;;;;15.19;52.41;99219.44;5043484;28;20061;-74
2023/06/02 04:16:03;;;;;;;0.47;0.25;;;;;;;15.16;53.19;99228.34;5043089;28;20041;-73
2023/06/02 04:18:31;;;;;;;0.20;0.20;;;;;;;15.22;52.87;99229.03;5026173;28;20040;-74
2023/06/02 04:20:59;;;;;;;0.20;0.20;;;;;;;15.25;52.63;99220.94;5042350;28;20110;-74
2023/06/02 04:23:26;;;;;;;0.20;0.20;;;;;;;15.43;52.48;99232.78;5043525;28;20049;-73
2023/06/02 04:25:53;;;;;;;0.20;0.20;;;;;;;15.57;52.59;99218.06;5045215;28;20064;-74
2023/06/02 04:28:20;;;;;;;0.30;0.30;;;;;;;15.74;52.69;99217.28;5027029;28;20098;-73
2023/06/02 04:30:48;;;;;;;0.20;0.20;;;;;;;15.90;52.36;99216.81;5042309;28;20112;-73
2023/06/02 04:33:16;;;;;;;0.20;0.20;;;;;;;15.90;51.34;99209.34;5042125;28;20117;-73
2023/06/02 04:35:43;;;;;;;0.20;0.20;;;;;;;15.90;51.04;99217.63;5041341;28;20525;-73
2023/06/02 04:38:11;;;;;;;0.20;0.20;;;;;;;15.93;51.00;99221.69;5039079;28;20452;-73
2023/06/02 04:40:39;;;;;;;0.40;0.20;;;;;;;15.97;50.75;99219.88;5024799;28;20143;-73
2023/06/02 04:43:05;;;;;;;0.20;0.20;;;;;;;16.05;50.42;99205.28;5037696;28;20539;-73
2023/06/02 04:45:32;;;;;;;0.22;0.22;;;;;;;16.24;50.68;99209.63;5025091;28;20060;-73
2023/06/02 04:47:59;;;;;;;0.20;0.20;;;;;;;16.37;50.20;99207.81;5042759;28;20500;-72
2023/06/02 04:50:29;;;;;;;0.28;0.28;;;;;;;16.42;50.18;99210.41;5044424;28;20048;-73
2023/06/02 04:52:56;;;;;;;0.30;0.30;;;;;;;16.45;49.98;99207.78;5042892;28;20045;-73
2023/06/02 04:55:22;;;;;;;0.30;0.30;;;;;;;16.46;50.12;99200.34;5041879;28;20574;-73
2023/06/02 04:57:51;;;;;;;0.20;0.20;;;;;;;16.50;50.10;99204.06;5042222;28;20503;-73
2023/06/02 05:00:18;;;;;;;0.30;0.30;;;;;;;16.53;49.92;99203.38;5043655;28;20055;-74
2023/06/02 05:02:45;;;;;;;0.40;0.40;;;;;;;16.54;49.93;99207.78;5040903;28;20072;-72
2023/06/02 05:05:12;;;;;;;;;;;;;;;16.61;50.00;99207.25;5042269;28;20033;-73
2023/06/02 05:07:40;;;;;;;;;;;;;;;16.67;49.29;99211.47;5038819;28;19924;-73
2023/06/02 05:10:08;;;;;;;0.30;0.30;;;;;;;16.71;48.42;99209.66;5024078;28;19925;-73
2023/06/02 05:12:36;;;;;;;0.32;0.32;;;;;;;16.77;48.46;99207.53;5032150;28;20044;-72
2023/06/02 05:15:04;;;;;;;0.30;0.30;;;;;;;16.82;49.08;99209.31;5041002;28;20057;-72
2023/06/02 05:17:30;;;;;;;0.30;0.30;;;;;;;16.99;48.45;99214.78;5024139;28;20053;-72
2023/06/02 05:20:00;;;;;;;0.38;0.38;;;;;;;17.13;47.64;99217.31;5026840;28;20067;-72
2023/06/02 05:22:29;;;;;;;0.45;0.30;;;;;;;17.21;47.51;99218.41;5025103;28;20247;-72
2023/06/02 05:24:58;;;;;;;0.30;0.30;;;;;;;17.15;47.40;99228.81;5039326;28;20044;-72
2023/06/02 05:27:24;;;;;;;0.25;0.25;;;;;;;17.04;47.70;99226.78;5041035;28;20057;-72
2023/06/02 05:29:50;;;;;;;0.30;0.30;;;;;;;16.93;47.86;99215.28;5051440;28;21040;-72
2023/06/02 05:32:17;;;;;;;0.30;0.30;;;;;;;16.96;48.47;99222.88;5052388;28;20045;-72
2023/06/02 05:34:44;;;;;;;0.30;0.30;;;;;;;17.03;48.02;99222.41;5035606;28;20045;-71
2023/06/02 05:37:11;;;;;;;0.20;0.20;;;;;;;16.97;48.42;99221.75;5036773;28;20045;-72
2023/06/02 05:39:39;;;;;;;0.30;0.30;;;;;;;16.95;48.22;99212.97;5039974;28;20539;-71
2023/06/02 05:42:07;;;;;;;0.30;0.30;;;;;;;16.94;47.94;99206.66;5024639;28;20477;-73
2023/06/02 05:44:34;;;;;;;0.30;0.30;;;;;;;16.96;47.82;99198.84;5042522;28;20049;-72
2023/06/02 05:47:00;;;;;;;0.30;0.30;;;;;;;17.06;47.44;99208.75;5038439;28;20397;-72
2023/06/02 05:49:26;;;;;;;0.30;0.30;;;;;;;17.06;47.40;99210.69;5039060;28;20197;-72
2023/06/02 05:51:52;;;;;;;0.30;0.30;;;;;;;17.10;47.49;99201.41;5040273;28;20051;-72
2023/06/02 05:54:19;;;;;;;0.30;0.30;;;;;;;17.10;47.27;99209.69;5041769;28;20051;-72
2023/06/02 05:56:46;;;;;;;0.30;0.30;;;;;;;17.21;47.78;99212.06;5039273;28;20056;-72
2023/06/02 05:59:14;;;;;;;0.30;0.30;;;;;;;17.53;47.28;99212.53;5019603;28;20519;-72
2023/06/02 06:01:40;;;;;;;0.30;0.30;;;;;;;17.71;46.95;99205.72;5040589;28;20079;-72
2023/06/02 06:04:06;;;;;;;0.30;0.30;;;;;;;17.76;46.82;99201.13;5042084;28;20077;-72
2023/06/02 06:06:33;;;;;;;0.30;0.30;;;;;;;17.70;47.13;99203.28;5042051;28;20143;-72
2023/06/02 06:08:59;;;;;;;0.30;0.30;;;;;;;17.71;46.81;99207.66;4691611;28;9999837;-73
2023/06/02 06:11:25;;;;;;;0.30;0.30;;;;;;;17.61;46.69;99202.53;5041600;28;20144;-72
2023/06/02 06:13:53;;;;;;;0.30;0.30;;;;;;;17.66;47.05;99202.34;5038418;28;20064;-72
2023/06/02 06:16:20;;;;;;;0.40;0.40;;;;;;;17.74;46.78;99195.94;5033042;28;20144;-72
2023/06/02 06:18:47;;;;;;;0.30;0.30;;;;;;;17.89;46.84;99196.47;5019088;28;20423;-72
2023/06/02 06:21:13;;;;;;;0.55;0.38;;;;;;;17.94;46.40;99197.03;5041833;28;20045;-72
2023/06/02 06:23:40;;;;;;;0.30;0.30;;;;;;;18.06;46.13;99207.41;5037931;28;20061;-71
2023/06/02 06:26:06;;;;;;;0.30;0.30;;;;;;;18.17;45.66;99199.47;5040817;28;20420;-71
2023/06/02 06:28:32;;;;;;;0.30;0.30;;;;;;;18.32;45.61;99200.00;5017072;28;20576;-71
2023/06/02 06:31:00;;;;;;;0.35;0.35;;;;;;;18.57;45.14;99203.63;5039120;28;20121;-72
2023/06/02 06:33:29;;;;;;;0.68;0.40;;;;;;;18.66;44.54;99192.44;5036055;28;20060;-72
2023/06/02 06:35:55;;;;;;;0.30;0.30;;;;;;;18.60;44.70;99200.16;5020590;28;20064;-72
2023/06/02 06:38:23;;;;;;;0.30;0.30;;;;;;;18.62;44.65;99186.78;5039257;28;20393;-72
2023/06/02 06:40:51;;;;;;;0.30;0.30;;;;;;;18.84;44.23;99182.75;5026867;28;20513;-72
2023/06/02 06:43:17;;;;;;;0.40;0.40;;;;;;;19.08;43.51;99183.94;5025978;28;20059;-72
2023/06/02 06:45:46;;;;;;;0.30;0.30;;;;;;;19.22;42.24;99186.34;5050589;28;20058;-72
2023/06/02 06:48:13;;;;;;;0.30;0.30;;;;;;;19.26;42.58;99183.69;5036906;28;20069;-73
2023/06/02 06:50:41;;;;;;;0.30;0.30;;;;;;;19.37;42.00;99181.25;5040191;28;20058;-72
2023/06/02 06:53:08;;;;;;;0.40;0.40;;;;;;;19.53;41.69;99186.88;5034155;28;20091;-73
2023/06/02 06:55:35;;;;;;;0.30;0.30;;;;;;;19.84;41.15;99180.66;5043761;28;20122;-73
2023/06/02 06:58:01;;;;;;;0.30;0.30;;;;;;;19.88;41.03;99180.75;5045141;28;20096;-73
2023/06/02 07:00:27;;;;;;;0.40;0.40;;;;;;;19.81;41.50;99172.22;5045475;28;20048;-73
2023/06/02 07:02:53;;;;;;;0.40;0.40;;;;;;;19.75;41.41;99171.69;5040363;28;20057;-74
2023/06/02 07:05:20;;;;;;;0.40;0.40;;;;;;;19.87;41.05;99170.84;5057879;28;20103;-73
2023/06/02 07:07:48;;;;;;;0.30;0.30;;;;;;;20.02;40.72;99166.50;5043034;28;20056;-73
2023/06/02 07:10:14;;;;;;;0.40;0.40;;;;;;;20.14;39.60;99167.59;5030286;28;20041;-73
2023/06/02 07:12:41;;;;;;;0.40;0.40;;;;;;;20.19;39.50;99168.16;5039288;28;20512;-73
2023/06/02 07:15:08;;;;;;;0.40;0.40;;;;;;;20.12;39.87;99166.00;5032011;28;20535;-73
2023/06/02 07:17:34;;;;;;;0.30;0.30;;;;;;;20.32;38.11;99170.88;5035675;28;20049;-73
2023/06/02 07:20:00;;;;;;;0.30;0.30;;;;;;;20.46;38.08;99162.91;5032494;28;20124;-73
2023/06/02 07:22:27;;;;;;;0.40;0.40;;;;;;;20.63;38.27;99163.72;5040289;28;20523;-73
2023/06/02 07:24:54;;;;;;;0.30;0.30;;;;;;;20.82;38.64;99161.06;5041749;28;20047;-74
2023/06/02 07:27:20;;;;;;;0.32;0.32;;;;;;;21.11;37.18;99156.19;5046582;28;20045;-74
2023/06/02 07:29:47;;;;;;;0.40;0.40;;;;;;;21.23;37.07;99158.03;5047049;28;20048;-72
2023/06/02 07:32:13;;;;;;;0.40;0.40;;;;;;;21.36;36.98;99150.34;5044990;28;20040;-73
2023/06/02 07:34:39;;;;;;;0.40;0.40;;;;;;;21.46;36.09;99150.97;5038705;28;20037;-73
2023/06/02 07:37:05;;;;;;;0.40;0.40;;;;;;;21.42;36.28;99153.66;5034328;28;20041;-73
2023/06/02 07:39:31;;;;;;;0.30;0.30;;;;;;;21.65;36.10;99151.00;5063038;28;20052;-73
2023/06/02 07:41:59;;;;;;;0.40;0.40;;;;;;;21.96;35.63;99140.88;5029767;28;20546;-73
2023/06/02 07:44:26;;;;;;;0.40;0.40;;;;;;;21.96;35.15;99143.66;5041467;28;20072;-73
2023/06/02 07:46:52;;;;;;;0.40;0.40;;;;;;;22.10;35.14;99136.75;5038089;28;20386;-73
2023/06/02 07:49:18;;;;;;;0.40;0.40;;;;;;;22.07;34.38;99137.50;5041184;28;20069;-72
2023/06/02 07:51:44;;;;;;;0.40;0.40;;;;;;;22.03;34.81;99125.50;5034545;28;20037;-73
2023/06/02 07:54:10;;;;;;;0.40;0.40;;;;;;;22.17;34.58;99128.53;5041681;28;20511;-72
2023/06/02 07:56:37;;;;;;;0.40;0.40;;;;;;;22.13;34.48;99122.09;5036709;28;20045;-72
2023/06/02 07:59:05;;;;;;;0.40;0.40;;;;;;;22.19;34.57;99126.19;5040998;28;20033;-73
2023/06/02 08:01:31;;;;;;;0.50;0.50;;;;;;;22.30;34.12;99122.78;5041422;28;20307;-72
2023/06/02 08:03:59;;;;;;;0.40;0.40;;;;;;;22.32;34.39;99124.03;5040356;28;20077;-72
2023/06/02 08:06:25;;;;;;;0.38;0.38;;;;;;;22.50;34.46;99115.19;5039515;28;20056;-72
2023/06/02 08:08:51;;;;;;;0.40;0.40;;;;;;;22.78;34.13;99122.41;5041344;28;20469;-72
2023/06/02 08:11:17;;;;;;;0.40;0.40;;;;;;;22.94;33.61;99120.28;5032900;28;20073;-72
2023/06/02 08:13:44;;;;;;;0.40;0.40;;;;;;;23.02;33.78;99110.03;5043990;28;20058;-72
2023/06/02 08:16:11;;;;;;;0.40;0.40;;;;;;;23.28;33.17;99113.19;5025810;28;20140;-72
2023/06/02 08:18:37;;;;;;;0.40;0.40;;;;;;;23.42;33.32;99107.81;5040844;28;20056;-72
2023/06/02 08:21:04;;;;;;;0.40;0.40;;;;;;;23.48;33.09;99099.91;5040393;28;20046;-72
2023/06/02 08:23:31;;;;;;;0.40;0.40;;;;;;;23.55;33.52;99107.56;5039896;28;20427;-73
2023/06/02 08:25:58;;;;;;;0.45;0.45;;;;;;;23.74;33.71;99103.81;5038994;28;20843;-73
2023/06/02 08:28:25;;;;;;;0.40;0.40;;;;;;;23.97;33.43;99106.44;5039929;28;20256;-74
2023/06/02 08:30:52;;;;;;;0.40;0.40;;;;;;;24.29;33.20;99096.78;5036564;28;20041;-73
2023/06/02 08:33:21;;;;;;;0.50;0.50;;;;;;;24.55;32.78;99100.59;5036568;28;20148;-73
2023/06/02 08:35:50;;;;;;;0.45;0.45;;;;;;;24.77;32.54;99110.00;5042678;28;20136;-73
2023/06/02 08:38:17;;;;;;;0.50;0.50;;;;;;;24.50;32.68;99096.97;5041269;28;20140;-72
2023/06/02 08:40:45;;;;;;;0.50;0.50;;;;;;;24.73;32.61;99095.94;5024885;28;20049;-72
2023/06/02 08:43:13;;;;;;;0.50;0.50;;;;;;;25.02;32.34;99098.97;5037564;28;20350;-73
2023/06/02 08:45:39;;;;;;;0.50;0.50;;;;;;;25.71;31.39;99088.09;5042684;28;20072;-73
2023/06/02 08:48:07;;;;;;;0.60;0.60;;;;;;;26.47;30.31;99085.41;5041558;28;20570;-73
2023/06/02 08:50:36;;;;;;;0.50;0.50;;;;;;;26.81;29.97;99083.38;5041148;28;20049;-73
2023/06/02 08:53:03;;;;;;;0.65;0.50;;;;;;;26.75;29.70;99064.19;5040968;28;20094;-73
2023/06/02 08:55:32;;;;;;;0.60;0.60;;;;;;;26.46;30.33;99077.44;5040287;28;20044;-73
2023/06/02 08:57:59;;;;;;;0.60;0.60;;;;;;;26.52;30.09;99070.22;5040035;28;20140;-72
2023/06/02 09:00:25;;;;;;;0.60;0.60;;;;;;;26.53;30.35;99065.38;5045331;28;20048;-73
2023/06/02 09:02:53;;;;;;;0.60;0.60;;;;;;;26.66;30.65;99079.81;5038999;28;20057;-73
2023/06/02 09:05:19;;;;;;;0.57;0.57;;;;;;;26.56;30.18;99067.41;5041006;28;20423;-73
2023/06/02 09:07:47;;;;;;;0.60;0.60;;;;;;;27.01;29.97;99059.34;5024739;28;20103;-73
2023/06/02 09:10:28;;;;;;;0.50;0.50;;;;;;;27.45;29.32;99064.78;5043743;28;20049;-72
2023/06/02 09:12:54;;;;;;;0.75;0.63;;;;;;;27.46;28.75;99063.56;5045762;28;20504;-73
2023/06/02 09:15:20;;;;;;;0.60;0.60;;;;;;;27.29;29.31;99045.63;5044911;28;20069;-72
2023/06/02 09:17:46;;;;;;;0.70;0.70;;;;;;;27.86;28.74;99041.72;5041320;28;20143;-72
2023/06/02 09:20:13;;;;;;;0.60;0.60;;;;;;;28.26;28.22;99047.06;5045246;28;20049;-72
2023/06/02 09:22:56;;;;;;;0.67;0.67;;;;;;;28.22;28.16;99039.88;5044615;28;20048;-70
2023/06/02 09:25:25;;;;;;;0.70;0.70;;;;;;;28.43;28.19;99045.31;5044465;28;20136;-73
2023/06/02 09:27:51;;;;;;;0.75;0.75;;;;;;;28.53;27.71;99032.38;5038066;28;20151;-72
2023/06/02 09:30:18;;;;;;;0.70;0.70;;;;;;;28.49;27.97;99022.38;5035820;28;20049;-70
2023/06/02 09:32:52;;;;;;;0.80;0.80;;;;;;;29.11;27.42;99031.78;5043345;28;20234;-74
2023/06/02 09:35:33;;;;;;;0.80;0.80;;;;;;;29.98;26.39;99021.38;5043480;28;20451;-73
2023/06/02 09:38:01;;;;;;;0.60;0.60;;;;;;;29.24;26.61;99017.94;5037804;28;20422;-71
2023/06/02 09:40:27;;;;;;;0.60;0.60;;;;;;;28.66;27.99;99010.16;5038313;28;20045;-72
2023/06/02 09:42:54;;;;;;;0.75;0.75;;;;;;;28.90;27.51;99021.59;5041289;28;20045;-73
2023/06/02 09:45:20;;;;;;;0.70;0.70;;;;;;;29.30;27.01;99010.63;5041314;28;20060;-71
2023/06/02 09:47:47;;;;;;;0.90;0.90;;;;;;;29.39;26.46;99012.13;5042410;28;20098;-71
2023/06/02 09:50:32;;;;;;;1.05;0.90;;;;;;;29.74;26.27;99006.41;5040311;28;20055;-73
2023/06/02 09:53:03;;;;;;;0.90;0.90;;;;;;;29.85;25.23;99004.25;5037585;28;20060;-72
2023/06/02 09:55:32;;;;;;;0.90;0.90;;;;;;;30.17;25.77;98993.72;5039934;28;20037;-73
2023/06/02 09:57:59;;;;;;;0.70;0.70;;;;;;;30.78;24.97;98978.50;5014496;28;20053;-73
2023/06/02 10:00:26;;;;;;;0.90;0.90;;;;;;;31.20;24.36;98980.06;5017167;28;20094;-74
2023/06/02 10:02:53;;;;;;;0.90;0.90;;;;;;;31.49;23.81;98973.81;5038908;28;20057;-73
2023/06/02 10:05:21;;;;;;;1.00;1.00;;;;;;;31.85;22.79;98986.34;5043399;28;20053;-73
2023/06/02 10:07:56;;;;;;;1.00;1.00;;;;;;;32.26;21.29;98970.75;5041294;28;20068;-72
2023/06/02 10:10:36;;;;;;;0.90;0.90;;;;;;;32.18;21.52;98967.31;5039856;28;20057;-73
2023/06/02 10:13:33;;;;;;;1.05;1.05;;;;;;;31.79;21.48;98963.47;5044516;28;20056;-74
2023/06/02 10:16:12;;;;;;;1.05;1.05;;;;;;;32.08;21.59;98957.88;5043484;28;20064;-73
2023/06/02 10:19:16;;;;;;;1.00;1.00;;;;;;;32.80;20.33;98972.13;5030845;28;20045;-72
2023/06/02 10:21:59;;;;;;;1.00;1.00;;;;;;;32.23;20.20;98958.28;5048780;28;20049;-73
2023/06/02 10:24:37;;;;;;;0.60;0.60;;;;;;;31.67;21.09;98953.63;5046926;28;20045;-73
2023/06/02 10:27:21;;;;;;;1.10;1.10;;;;;;;29.72;23.60;98947.72;5048963;28;20055;-73
2023/06/02 10:29:51;;;;;;;1.10;1.10;;;;;;;29.36;23.62;98951.06;5048583;28;20068;-71
2023/06/02 10:32:22;;;;;;;0.40;0.40;;;;;;;28.50;23.90;98934.03;5050063;28;20215;-73
2023/06/02 10:34:52;;;;;;;0.40;0.40;;;;;;;27.22;25.80;98947.44;5046637;28;20037;-73
2023/06/02 10:37:20;;;;;;;0.40;0.40;;;;;;;26.32;26.58;98946.53;5047141;28;20079;-74
2023/06/02 10:39:48;;;;;;;0.40;0.40;;;;;;;25.80;27.45;98956.16;5045290;28;20045;-73
2023/06/02 10:42:16;;;;;;;0.40;0.40;;;;;;;25.68;27.60;98951.75;5031038;28;20056;-73
2023/06/02 10:44:43;;;;;;;0.40;0.40;;;;;;;25.31;28.13;98945.28;5050551;28;20136;-73
2023/06/02 10:47:35;;;;;;;0.65;0.65;;;;;;;25.16;28.67;98957.63;5049266;28;20049;-73
2023/06/02 10:50:03;;;;;;;1.10;1.10;;;;;;;27.03;26.42;98952.34;5064645;28;20045;-73
2023/06/02 10:52:33;;;;;;;1.10;1.10;;;;;;;28.81;24.23;98932.09;5040706;28;20474;-73
2023/06/02 10:55:24;;;;;;;1.17;1.17;;;;;;;30.46;22.57;98962.97;5040967;28;20052;-72
2023/06/02 10:57:52;;;;;;;0.82;0.82;;;;;;;29.23;23.62;98931.94;5043529;28;20084;-73
2023/06/02 11:00:44;;;;;;;1.02;1.02;;;;;;;29.63;23.35;98939.00;5040497;28;20140;-73
2023/06/02 11:03:29;;;;;;;1.20;1.20;;;;;;;30.76;22.19;98944.28;5043815;28;20037;-72
2023/06/02 11:06:18;;;;;;;1.20;1.20;;;;;;;31.68;21.07;98924.13;5033271;28;20046;-73
2023/06/02 11:08:45;;;;;;;1.30;1.20;;;;;;;32.08;20.65;98911.84;5040214;28;20056;-74
2023/06/02 11:11:11;;;;;;;0.50;0.50;;;;;;;31.30;21.75;98927.47;5044949;28;20045;-74
2023/06/02 11:13:59;;;;;;;1.23;1.20;;;;;;;30.08;22.35;98926.63;5039082;28;20459;-73
2023/06/02 11:16:27;;;;;;;1.40;1.30;;;;;;;29.97;22.52;98919.13;5041156;28;20045;-72
2023/06/02 11:18:53;;;;;;;0.55;0.55;;;;;;;29.49;23.57;98925.97;5038369;28;20049;-71
2023/06/02 11:21:20;;;;;;;1.40;1.30;;;;;;;29.36;23.52;98918.06;5036208;28;20446;-71
2023/06/02 11:23:47;;;;;;;0.70;0.70;;;;;;;30.42;22.22;98898.19;5046429;28;20130;-72
2023/06/02 11:26:14;;;;;;;;;;;;;;;30.07;22.72;98896.88;5062870;28;20041;-72
2023/06/02 11:28:40;;;;;;;0.50;0.50;;;;;;;30.19;22.40;98895.44;5041500;28;19951;-73
2023/06/02 11:31:09;;;;;;;1.40;1.30;;;;;;;29.31;23.04;98898.84;5040874;28;20052;-73
2023/06/02 11:33:42;;;;;;;0.50;0.50;;;;;;;29.95;21.87;98895.44;4851269;28;10000391;-73
2023/06/02 11:36:10;;;;;;;0.50;0.50;;;;;;;29.20;21.78;98901.03;5035819;28;20637;-73
2023/06/02 11:38:39;;;;;;;0.50;0.50;;;;;;;28.06;23.54;98885.88;5024891;28;20037;-73